LOT329 EPWA-LIPE
Flight info
| Callsign | LOT329 |
|---|---|
| Flight time | 1h 35m |
| Altitude | 32000 |
| Route | EVINA N744 NAVUR DCT TUSIN DCT MIKOV DCT DETSA/N0463F330 DCT ADOSA/N0403F190 M738 BENUS |
| Aircraft | B38M/M-SDE1FGHILORVWXY/HB1 |
Departure
| Time | 2026-05-04 17:06 |
|---|---|
| Airport | Warsaw Chopin Airport (EPWA) |
Arrival
| Time | 2026-05-04 18:42 |
|---|---|
| Airport | Bologna Guglielmo Marconi Airport (LIPE) |
| Time | Latitude | Longitude | Altitude | Speed | Heading |
|---|---|---|---|---|---|
| 2026-05-04 16:37 | 52.17001 | 20.97151 | 337 ft | 0 kts | 72° |
| 2026-05-04 16:56 | 52.16985 | 20.97068 | 333 ft | 4 kts | 72° |
| 2026-05-04 16:57 | 52.16979 | 20.97029 | 333 ft | 4 kts | 91° |
| 2026-05-04 16:57 | 52.17001 | 20.96979 | 333 ft | 1 kts | 151° |
| 2026-05-04 16:58 | 52.17003 | 20.96978 | 333 ft | 0 kts | 151° |
| 2026-05-04 17:01 | 52.16941 | 20.97033 | 339 ft | 12 kts | 151° |
| 2026-05-04 17:02 | 52.16742 | 20.97203 | 336 ft | 18 kts | 152° |
| 2026-05-04 17:02 | 52.16552 | 20.97454 | 337 ft | 18 kts | 114° |
| 2026-05-04 17:03 | 52.16515 | 20.97582 | 336 ft | 19 kts | 115° |
| 2026-05-04 17:03 | 52.16432 | 20.97803 | 338 ft | 10 kts | 165° |
| 2026-05-04 17:03 | 52.16305 | 20.97717 | 337 ft | 9 kts | 236° |
| 2026-05-04 17:04 | 52.16311 | 20.97652 | 338 ft | 0 kts | 293° |
| 2026-05-04 17:04 | 52.16311 | 20.97651 | 338 ft | 1 kts | 293° |
| 2026-05-04 17:05 | 52.16579 | 20.96701 | 347 ft | 118 kts | 294° |
| 2026-05-04 17:05 | 52.17529 | 20.93371 | 639 ft | 171 kts | 291° |
| 2026-05-04 17:06 | 52.18301 | 20.90182 | 860 ft | 194 kts | 281° |
| 2026-05-04 17:06 | 52.18385 | 20.87939 | 1123 ft | 206 kts | 257° |
| 2026-05-04 17:07 | 52.17618 | 20.83358 | 1695 ft | 212 kts | 253° |
| 2026-05-04 17:07 | 52.17368 | 20.81813 | 1895 ft | 216 kts | 253° |
| 2026-05-04 17:07 | 52.16746 | 20.78632 | 2346 ft | 224 kts | 237° |
| 2026-05-04 17:07 | 52.15623 | 20.76867 | 2741 ft | 234 kts | 211° |
| 2026-05-04 17:08 | 52.14066 | 20.75890 | 3144 ft | 245 kts | 199° |
| 2026-05-04 17:08 | 52.10742 | 20.74156 | 4138 ft | 254 kts | 199° |
| 2026-05-04 17:08 | 52.09050 | 20.73255 | 4674 ft | 256 kts | 199° |
| 2026-05-04 17:09 | 52.07353 | 20.72346 | 5184 ft | 258 kts | 200° |
| 2026-05-04 17:09 | 52.05637 | 20.71425 | 5710 ft | 261 kts | 200° |
| 2026-05-04 17:09 | 52.03897 | 20.70489 | 6239 ft | 266 kts | 201° |
| 2026-05-04 17:10 | 52.00349 | 20.68584 | 7373 ft | 271 kts | 200° |
| 2026-05-04 17:10 | 51.94930 | 20.65677 | 9195 ft | 278 kts | 200° |
| 2026-05-04 17:11 | 51.93085 | 20.64688 | 9819 ft | 281 kts | 200° |
| 2026-05-04 17:11 | 51.91181 | 20.63666 | 10377 ft | 292 kts | 200° |
| 2026-05-04 17:11 | 51.87106 | 20.61467 | 11262 ft | 330 kts | 200° |
| 2026-05-04 17:12 | 51.84867 | 20.60260 | 11692 ft | 347 kts | 200° |
| 2026-05-04 17:12 | 51.80153 | 20.57736 | 13034 ft | 362 kts | 200° |
| 2026-05-04 17:13 | 51.72826 | 20.53853 | 15103 ft | 375 kts | 200° |
| 2026-05-04 17:14 | 51.65279 | 20.49869 | 17055 ft | 386 kts | 200° |
| 2026-05-04 17:14 | 51.62707 | 20.48516 | 17705 ft | 390 kts | 200° |
| 2026-05-04 17:14 | 51.57500 | 20.45780 | 18847 ft | 397 kts | 200° |
| 2026-05-04 17:15 | 51.54864 | 20.44397 | 19390 ft | 401 kts | 200° |
| 2026-05-04 17:15 | 51.49509 | 20.41595 | 20434 ft | 408 kts | 200° |
| 2026-05-04 17:16 | 51.44062 | 20.38751 | 21445 ft | 415 kts | 200° |
| 2026-05-04 17:16 | 51.36249 | 20.32804 | 22915 ft | 421 kts | 218° |
| 2026-05-04 17:17 | 51.33882 | 20.30018 | 23354 ft | 425 kts | 218° |
| 2026-05-04 17:17 | 51.26709 | 20.21428 | 24580 ft | 434 kts | 219° |
| 2026-05-04 17:18 | 51.24295 | 20.18526 | 24974 ft | 436 kts | 219° |
| 2026-05-04 17:18 | 51.19411 | 20.12667 | 25742 ft | 442 kts | 218° |
| 2026-05-04 17:19 | 51.14496 | 20.06785 | 26478 ft | 447 kts | 218° |
| 2026-05-04 17:19 | 51.09484 | 20.00810 | 27199 ft | 453 kts | 218° |
| 2026-05-04 17:20 | 51.04407 | 19.94783 | 27886 ft | 458 kts | 218° |
| 2026-05-04 17:20 | 50.99270 | 19.88699 | 28570 ft | 463 kts | 218° |
| 2026-05-04 17:20 | 50.96677 | 19.85632 | 28892 ft | 466 kts | 218° |
| 2026-05-04 17:21 | 50.91447 | 19.79460 | 29541 ft | 471 kts | 218° |
| 2026-05-04 17:21 | 50.86196 | 19.73282 | 30392 ft | 469 kts | 218° |
| 2026-05-04 17:22 | 50.83581 | 19.70211 | 30777 ft | 468 kts | 218° |
| 2026-05-04 17:22 | 50.80965 | 19.67144 | 31168 ft | 467 kts | 218° |
| 2026-05-04 17:23 | 50.73469 | 19.58381 | 31962 ft | 465 kts | 218° |
| 2026-05-04 17:23 | 50.70882 | 19.55364 | 31964 ft | 464 kts | 218° |
| 2026-05-04 17:24 | 50.63098 | 19.46314 | 31963 ft | 463 kts | 218° |
| 2026-05-04 17:25 | 50.52719 | 19.34304 | 31964 ft | 464 kts | 218° |
| 2026-05-04 17:26 | 50.42309 | 19.22328 | 31964 ft | 464 kts | 218° |
| 2026-05-04 17:27 | 50.29281 | 19.07431 | 31965 ft | 464 kts | 218° |
| 2026-05-04 17:28 | 50.18842 | 18.95570 | 31971 ft | 464 kts | 218° |
| 2026-05-04 17:29 | 50.03152 | 18.77865 | 31974 ft | 464 kts | 217° |
| 2026-05-04 17:31 | 49.90084 | 18.63224 | 31985 ft | 464 kts | 217° |
| 2026-05-04 17:31 | 49.82830 | 18.53487 | 31991 ft | 458 kts | 232° |
| 2026-05-04 17:32 | 49.78810 | 18.45964 | 31973 ft | 452 kts | 232° |
| 2026-05-04 17:33 | 49.70849 | 18.30916 | 31968 ft | 452 kts | 232° |
| 2026-05-04 17:34 | 49.62867 | 18.15893 | 31969 ft | 452 kts | 232° |
| 2026-05-04 17:35 | 49.52861 | 17.97184 | 31972 ft | 453 kts | 232° |
| 2026-05-04 17:36 | 49.48846 | 17.89713 | 31972 ft | 453 kts | 232° |
| 2026-05-04 17:36 | 49.44830 | 17.82261 | 31978 ft | 453 kts | 232° |
| 2026-05-04 17:37 | 49.40809 | 17.74822 | 31984 ft | 453 kts | 232° |
| 2026-05-04 17:37 | 49.36778 | 17.67385 | 31983 ft | 453 kts | 232° |
| 2026-05-04 17:38 | 49.32747 | 17.59969 | 31978 ft | 453 kts | 232° |
| 2026-05-04 17:38 | 49.28709 | 17.52559 | 31977 ft | 453 kts | 232° |
| 2026-05-04 17:39 | 49.22645 | 17.41475 | 31973 ft | 453 kts | 232° |
| 2026-05-04 17:39 | 49.18595 | 17.34097 | 31973 ft | 453 kts | 232° |
| 2026-05-04 17:40 | 49.14540 | 17.26730 | 31967 ft | 453 kts | 232° |
| 2026-05-04 17:40 | 49.10483 | 17.19381 | 31965 ft | 453 kts | 232° |
| 2026-05-04 17:41 | 49.06422 | 17.12044 | 31966 ft | 453 kts | 232° |
| 2026-05-04 17:41 | 49.02357 | 17.04721 | 31965 ft | 453 kts | 232° |
| 2026-05-04 17:42 | 48.98282 | 16.97399 | 31966 ft | 453 kts | 232° |
| 2026-05-04 17:42 | 48.94209 | 16.90103 | 31960 ft | 452 kts | 231° |
| 2026-05-04 17:43 | 48.90132 | 16.82818 | 31959 ft | 452 kts | 231° |
| 2026-05-04 17:43 | 48.86053 | 16.75547 | 31956 ft | 452 kts | 231° |
| 2026-05-04 17:44 | 48.81979 | 16.68302 | 31950 ft | 452 kts | 231° |
| 2026-05-04 17:44 | 48.78004 | 16.60941 | 31942 ft | 449 kts | 239° |
| 2026-05-04 17:45 | 48.74649 | 16.53024 | 31942 ft | 449 kts | 239° |
| 2026-05-04 17:45 | 48.71272 | 16.45055 | 31936 ft | 449 kts | 239° |
| 2026-05-04 17:46 | 48.67893 | 16.37096 | 31930 ft | 449 kts | 239° |
| 2026-05-04 17:46 | 48.64509 | 16.29147 | 31927 ft | 449 kts | 239° |
| 2026-05-04 17:47 | 48.61121 | 16.21214 | 31921 ft | 449 kts | 239° |
| 2026-05-04 17:47 | 48.57729 | 16.13293 | 31918 ft | 449 kts | 239° |
| 2026-05-04 17:48 | 48.54332 | 16.05385 | 31912 ft | 449 kts | 238° |
| 2026-05-04 17:48 | 48.50927 | 15.97484 | 31913 ft | 449 kts | 238° |
| 2026-05-04 17:49 | 48.47520 | 15.89598 | 31911 ft | 449 kts | 238° |
| 2026-05-04 17:49 | 48.44106 | 15.81720 | 31908 ft | 449 kts | 238° |
| 2026-05-04 17:50 | 48.40686 | 15.73852 | 31907 ft | 449 kts | 238° |
| 2026-05-04 17:50 | 48.37266 | 15.66004 | 31911 ft | 449 kts | 238° |
| 2026-05-04 17:51 | 48.33835 | 15.58155 | 31922 ft | 449 kts | 238° |
| 2026-05-04 17:51 | 48.30406 | 15.50335 | 31914 ft | 448 kts | 238° |
| 2026-05-04 17:52 | 48.26970 | 15.42519 | 31910 ft | 448 kts | 238° |
| 2026-05-04 17:52 | 48.24116 | 15.36045 | 31916 ft | 448 kts | 238° |
| 2026-05-04 17:53 | 48.20673 | 15.28256 | 31902 ft | 448 kts | 237° |
| 2026-05-04 17:53 | 48.17228 | 15.20485 | 31902 ft | 448 kts | 237° |
| 2026-05-04 17:54 | 48.13777 | 15.12721 | 31899 ft | 448 kts | 237° |
| 2026-05-04 17:54 | 48.10318 | 15.04963 | 31903 ft | 448 kts | 237° |
| 2026-05-04 17:55 | 48.06854 | 14.97216 | 31898 ft | 448 kts | 237° |
| 2026-05-04 17:55 | 48.03384 | 14.89475 | 31905 ft | 448 kts | 237° |
| 2026-05-04 17:56 | 47.99907 | 14.81745 | 31894 ft | 448 kts | 237° |
| 2026-05-04 17:56 | 47.96422 | 14.74015 | 31893 ft | 448 kts | 237° |
| 2026-05-04 17:57 | 47.92957 | 14.66353 | 31902 ft | 449 kts | 237° |
| 2026-05-04 17:57 | 47.89442 | 14.58601 | 31895 ft | 449 kts | 236° |
| 2026-05-04 17:58 | 47.85941 | 14.50903 | 31900 ft | 449 kts | 236° |
| 2026-05-04 17:58 | 47.82435 | 14.43214 | 31908 ft | 449 kts | 236° |
| 2026-05-04 17:59 | 47.78923 | 14.35535 | 31906 ft | 449 kts | 236° |
| 2026-05-04 18:00 | 47.73670 | 14.24091 | 31913 ft | 448 kts | 236° |
| 2026-05-04 18:00 | 47.70131 | 14.16407 | 31917 ft | 448 kts | 236° |
| 2026-05-04 18:01 | 47.66633 | 14.08831 | 31923 ft | 447 kts | 236° |
| 2026-05-04 18:01 | 47.63109 | 14.01223 | 31931 ft | 447 kts | 236° |
| 2026-05-04 18:02 | 47.57821 | 13.89844 | 31934 ft | 447 kts | 235° |
| 2026-05-04 18:02 | 47.54290 | 13.82272 | 31934 ft | 446 kts | 235° |
| 2026-05-04 18:03 | 47.50762 | 13.74727 | 31954 ft | 446 kts | 235° |
| 2026-05-04 18:03 | 47.47227 | 13.67189 | 31955 ft | 445 kts | 235° |
| 2026-05-04 18:04 | 47.43700 | 13.59687 | 31958 ft | 445 kts | 235° |
| 2026-05-04 18:05 | 47.38397 | 13.48447 | 31974 ft | 444 kts | 235° |
| 2026-05-04 18:05 | 47.34864 | 13.40983 | 31975 ft | 444 kts | 234° |
| 2026-05-04 18:06 | 47.29556 | 13.29808 | 31991 ft | 444 kts | 234° |
| 2026-05-04 18:06 | 47.26012 | 13.22373 | 31995 ft | 444 kts | 234° |
| 2026-05-04 18:07 | 47.22465 | 13.14951 | 31987 ft | 443 kts | 234° |
| 2026-05-04 18:07 | 47.18932 | 13.07576 | 31995 ft | 444 kts | 234° |
| 2026-05-04 18:08 | 47.15374 | 13.00173 | 32009 ft | 444 kts | 234° |
| 2026-05-04 18:08 | 47.11811 | 12.92775 | 32015 ft | 444 kts | 234° |
| 2026-05-04 18:09 | 47.04667 | 12.78005 | 32020 ft | 443 kts | 234° |
| 2026-05-04 18:10 | 47.01095 | 12.70650 | 32035 ft | 443 kts | 234° |
| 2026-05-04 18:10 | 46.97521 | 12.63306 | 32044 ft | 442 kts | 234° |
| 2026-05-04 18:11 | 46.93952 | 12.55989 | 32065 ft | 442 kts | 234° |
| 2026-05-04 18:11 | 46.90377 | 12.48678 | 32080 ft | 442 kts | 234° |
| 2026-05-04 18:12 | 46.86799 | 12.41381 | 32105 ft | 441 kts | 234° |
| 2026-05-04 18:12 | 46.83223 | 12.34106 | 32115 ft | 441 kts | 234° |
| 2026-05-04 18:13 | 46.79343 | 12.27223 | 32120 ft | 440 kts | 219° |
| 2026-05-04 18:14 | 46.72064 | 12.19027 | 32126 ft | 441 kts | 218° |
| 2026-05-04 18:14 | 46.67178 | 12.13604 | 32137 ft | 442 kts | 218° |
| 2026-05-04 18:15 | 46.57388 | 12.02797 | 32105 ft | 442 kts | 218° |
| 2026-05-04 18:16 | 46.52527 | 11.97451 | 32088 ft | 441 kts | 218° |
| 2026-05-04 18:16 | 46.47627 | 11.92073 | 32064 ft | 442 kts | 218° |
| 2026-05-04 18:17 | 46.40273 | 11.84026 | 32052 ft | 442 kts | 217° |
| 2026-05-04 18:18 | 46.32909 | 11.75996 | 32065 ft | 442 kts | 217° |
| 2026-05-04 18:18 | 46.27997 | 11.70655 | 32067 ft | 442 kts | 217° |
| 2026-05-04 18:19 | 46.20630 | 11.62668 | 32087 ft | 441 kts | 217° |
| 2026-05-04 18:19 | 46.15723 | 11.57363 | 32125 ft | 441 kts | 217° |
| 2026-05-04 18:20 | 46.10812 | 11.52066 | 32133 ft | 441 kts | 217° |
| 2026-05-04 18:20 | 46.05900 | 11.46779 | 32138 ft | 441 kts | 217° |
| 2026-05-04 18:21 | 46.00982 | 11.41499 | 32139 ft | 441 kts | 217° |
| 2026-05-04 18:21 | 45.96062 | 11.36229 | 32152 ft | 441 kts | 217° |
| 2026-05-04 18:22 | 45.91140 | 11.30967 | 32145 ft | 441 kts | 217° |
| 2026-05-04 18:22 | 45.86204 | 11.25703 | 32135 ft | 442 kts | 217° |
| 2026-05-04 18:23 | 45.83738 | 11.23078 | 31814 ft | 441 kts | 217° |
| 2026-05-04 18:23 | 45.81278 | 11.20464 | 31003 ft | 441 kts | 217° |
| 2026-05-04 18:23 | 45.78799 | 11.17829 | 30079 ft | 445 kts | 216° |
| 2026-05-04 18:23 | 45.76310 | 11.15187 | 29164 ft | 447 kts | 216° |
| 2026-05-04 18:24 | 45.73811 | 11.12536 | 28311 ft | 446 kts | 216° |
| 2026-05-04 18:24 | 45.71312 | 11.09889 | 27456 ft | 447 kts | 216° |
| 2026-05-04 18:24 | 45.68823 | 11.07265 | 26760 ft | 443 kts | 215° |
| 2026-05-04 18:24 | 45.66108 | 11.05185 | 25877 ft | 445 kts | 200° |
| 2026-05-04 18:25 | 45.63107 | 11.04157 | 25245 ft | 442 kts | 186° |
| 2026-05-04 18:25 | 45.60046 | 11.04183 | 24615 ft | 440 kts | 175° |
| 2026-05-04 18:25 | 45.57004 | 11.04678 | 23914 ft | 443 kts | 174° |
| 2026-05-04 18:25 | 45.53986 | 11.05288 | 23136 ft | 446 kts | 173° |
| 2026-05-04 18:26 | 45.50919 | 11.05971 | 22396 ft | 446 kts | 172° |
| 2026-05-04 18:26 | 45.47863 | 11.06681 | 21726 ft | 443 kts | 172° |
| 2026-05-04 18:26 | 45.44839 | 11.07401 | 21044 ft | 439 kts | 172° |
| 2026-05-04 18:26 | 45.41838 | 11.08123 | 20375 ft | 436 kts | 172° |
| 2026-05-04 18:27 | 45.38855 | 11.08842 | 19706 ft | 432 kts | 172° |
| 2026-05-04 18:27 | 45.35909 | 11.09553 | 19043 ft | 428 kts | 172° |
| 2026-05-04 18:27 | 45.32977 | 11.10259 | 18382 ft | 425 kts | 172° |
| 2026-05-04 18:27 | 45.30072 | 11.10959 | 17638 ft | 422 kts | 172° |
| 2026-05-04 18:28 | 45.27189 | 11.11652 | 16946 ft | 417 kts | 172° |
| 2026-05-04 18:28 | 45.24350 | 11.12335 | 16304 ft | 412 kts | 171° |
| 2026-05-04 18:28 | 45.21533 | 11.13010 | 15667 ft | 407 kts | 171° |
| 2026-05-04 18:28 | 45.18761 | 11.13675 | 15033 ft | 402 kts | 171° |
| 2026-05-04 18:29 | 45.16012 | 11.14333 | 14400 ft | 398 kts | 171° |
| 2026-05-04 18:29 | 45.13318 | 11.14977 | 13915 ft | 390 kts | 171° |
| 2026-05-04 18:29 | 45.10624 | 11.15620 | 13163 ft | 395 kts | 171° |
| 2026-05-04 18:29 | 45.07926 | 11.16263 | 12875 ft | 389 kts | 171° |
| 2026-05-04 18:30 | 45.02658 | 11.17518 | 12074 ft | 386 kts | 171° |
| 2026-05-04 18:30 | 45.00030 | 11.18144 | 11867 ft | 379 kts | 171° |
| 2026-05-04 18:30 | 44.97439 | 11.18760 | 11481 ft | 379 kts | 171° |
| 2026-05-04 18:31 | 44.94840 | 11.19377 | 11180 ft | 376 kts | 171° |
| 2026-05-04 18:31 | 44.92284 | 11.19984 | 10949 ft | 372 kts | 171° |
| 2026-05-04 18:31 | 44.89754 | 11.20585 | 10690 ft | 363 kts | 171° |
| 2026-05-04 18:31 | 44.87326 | 11.21161 | 10370 ft | 354 kts | 171° |
| 2026-05-04 18:32 | 44.84931 | 11.21728 | 10059 ft | 344 kts | 171° |
| 2026-05-04 18:32 | 44.82603 | 11.22280 | 9689 ft | 335 kts | 171° |
| 2026-05-04 18:32 | 44.80329 | 11.22818 | 9341 ft | 327 kts | 171° |
| 2026-05-04 18:32 | 44.78105 | 11.23306 | 8968 ft | 320 kts | 176° |
| 2026-05-04 18:33 | 44.75939 | 11.22918 | 8583 ft | 314 kts | 197° |
| 2026-05-04 18:33 | 44.73876 | 11.22019 | 8242 ft | 307 kts | 196° |
| 2026-05-04 18:33 | 44.71859 | 11.21117 | 7872 ft | 302 kts | 203° |
| 2026-05-04 18:33 | 44.70239 | 11.19304 | 7484 ft | 301 kts | 234° |
| 2026-05-04 18:34 | 44.69560 | 11.16556 | 7123 ft | 301 kts | 266° |
| 2026-05-04 18:34 | 44.70003 | 11.13719 | 6760 ft | 301 kts | 296° |
| 2026-05-04 18:34 | 44.71013 | 11.11159 | 6425 ft | 297 kts | 296° |
| 2026-05-04 18:34 | 44.71980 | 11.08609 | 6045 ft | 295 kts | 297° |
| 2026-05-04 18:35 | 44.72897 | 11.06044 | 5630 ft | 293 kts | 289° |
| 2026-05-04 18:35 | 44.73078 | 11.03229 | 5107 ft | 293 kts | 257° |
| 2026-05-04 18:35 | 44.72186 | 11.00709 | 4586 ft | 287 kts | 226° |
| 2026-05-04 18:35 | 44.70592 | 10.99131 | 4092 ft | 278 kts | 204° |
| 2026-05-04 18:36 | 44.68868 | 10.97969 | 3600 ft | 272 kts | 206° |
| 2026-05-04 18:36 | 44.67130 | 10.96998 | 3083 ft | 268 kts | 188° |
| 2026-05-04 18:36 | 44.65341 | 10.97393 | 2598 ft | 261 kts | 149° |
| 2026-05-04 18:36 | 44.64168 | 10.99128 | 2553 ft | 236 kts | 116° |
| 2026-05-04 18:37 | 44.63485 | 11.01122 | 2546 ft | 218 kts | 115° |
| 2026-05-04 18:37 | 44.62829 | 11.02948 | 2561 ft | 201 kts | 116° |
| 2026-05-04 18:37 | 44.62230 | 11.04621 | 2560 ft | 184 kts | 116° |
| 2026-05-04 18:37 | 44.61672 | 11.06179 | 2526 ft | 175 kts | 116° |
| 2026-05-04 18:38 | 44.61127 | 11.07698 | 2519 ft | 174 kts | 117° |
| 2026-05-04 18:38 | 44.60584 | 11.09219 | 2517 ft | 174 kts | 117° |
| 2026-05-04 18:38 | 44.60041 | 11.10736 | 2516 ft | 174 kts | 117° |
| 2026-05-04 18:38 | 44.59497 | 11.12257 | 2475 ft | 176 kts | 117° |
| 2026-05-04 18:39 | 44.58950 | 11.13785 | 2260 ft | 174 kts | 117° |
| 2026-05-04 18:39 | 44.58423 | 11.15256 | 2060 ft | 163 kts | 118° |
| 2026-05-04 18:39 | 44.57921 | 11.16659 | 1853 ft | 159 kts | 118° |
| 2026-05-04 18:39 | 44.57427 | 11.18040 | 1637 ft | 157 kts | 119° |
| 2026-05-04 18:40 | 44.56935 | 11.19413 | 1430 ft | 158 kts | 119° |
| 2026-05-04 18:40 | 44.56444 | 11.20780 | 1209 ft | 156 kts | 119° |
| 2026-05-04 18:40 | 44.55962 | 11.22128 | 995 ft | 155 kts | 119° |
| 2026-05-04 18:40 | 44.55497 | 11.23463 | 773 ft | 152 kts | 118° |
| 2026-05-04 18:41 | 44.55186 | 11.24350 | 607 ft | 148 kts | 119° |
| 2026-05-04 18:41 | 44.54578 | 11.26046 | 368 ft | 149 kts | 120° |
| 2026-05-04 18:41 | 44.54103 | 11.27334 | 179 ft | 146 kts | 118° |
| 2026-05-04 18:41 | 44.53673 | 11.28507 | 126 ft | 114 kts | 116° |
| 2026-05-04 18:42 | 44.53418 | 11.29221 | 126 ft | 50 kts | 115° |
| 2026-05-04 18:42 | 44.53357 | 11.29388 | 131 ft | 8 kts | 116° |
| 2026-05-04 18:42 | 44.53294 | 11.29528 | 128 ft | 21 kts | 131° |
| 2026-05-04 18:42 | 44.53192 | 11.29652 | 129 ft | 16 kts | 145° |
| 2026-05-04 18:43 | 44.53150 | 11.29691 | 129 ft | 8 kts | 147° |
| 2026-05-04 18:43 | 44.53095 | 11.29741 | 126 ft | 11 kts | 147° |
| 2026-05-04 18:43 | 44.53026 | 11.29804 | 124 ft | 13 kts | 150° |
| 2026-05-04 18:43 | 44.53002 | 11.29810 | 127 ft | 2 kts | 188° |
| 2026-05-04 18:44 | 44.52983 | 11.29794 | 125 ft | 4 kts | 233° |
| 2026-05-04 18:44 | 44.52981 | 11.29771 | 127 ft | 4 kts | 271° |
| 2026-05-04 18:44 | 44.52999 | 11.29699 | 128 ft | 8 kts | 295° |
| 2026-05-04 18:44 | 44.53025 | 11.29623 | 124 ft | 9 kts | 298° |
| 2026-05-04 18:45 | 44.53053 | 11.29548 | 125 ft | 6 kts | 296° |
| 2026-05-04 18:45 | 44.53048 | 11.29511 | 129 ft | 3 kts | 221° |
| 2026-05-04 18:45 | 44.53032 | 11.29496 | 127 ft | 2 kts | 208° |
| 2026-05-04 18:45 | 44.53022 | 11.29489 | 128 ft | 1 kts | 207° |
| 2026-05-04 18:46 | 44.53020 | 11.29488 | 128 ft | 0 kts | 207° |
| 2026-05-04 18:46 | 44.53015 | 11.29484 | 129 ft | 1 kts | 207° |
| 2026-05-04 18:46 | 44.53014 | 11.29483 | 129 ft | 0 kts | 207° |